createdAt,value
2018-11-21T00:00:24.567Z,16.60
2018-11-21T00:05:28.259Z,16.50
2018-11-21T00:10:31.794Z,18.00
2018-11-21T00:15:35.283Z,18.50
2018-11-21T00:20:38.741Z,17.20
2018-11-21T00:25:42.299Z,17.25
2018-11-21T00:30:45.812Z,17.50
2018-11-21T00:35:49.308Z,17.00
2018-11-21T00:40:52.803Z,15.75
2018-11-21T00:45:56.341Z,16.75
2018-11-21T00:50:59.820Z,17.75
2018-11-21T00:56:03.356Z,17.50
2018-11-21T01:01:06.979Z,16.00
2018-11-21T01:06:10.444Z,17.50
2018-11-21T01:11:13.922Z,18.75
2018-11-21T01:16:17.413Z,16.25
2018-11-21T01:21:20.921Z,13.20
2018-11-21T01:26:24.406Z,17.75
2018-11-21T01:31:28.332Z,16.60
2018-11-21T01:36:31.880Z,16.80
2018-11-21T01:41:35.324Z,17.00
2018-11-21T01:46:38.801Z,14.20
2018-11-21T01:51:42.302Z,15.25
2018-11-21T01:56:45.744Z,14.80
2018-11-21T02:01:49.204Z,17.50
2018-11-21T02:06:52.720Z,14.60
2018-11-21T02:11:56.227Z,14.20
2018-11-21T02:16:59.711Z,13.80
2018-11-21T02:22:03.185Z,15.50
2018-11-21T02:27:06.697Z,14.60
2018-11-21T02:32:10.204Z,15.75
2018-11-21T02:37:13.678Z,14.40
2018-11-21T02:42:17.160Z,15.75
2018-11-21T02:47:20.681Z,11.40
2018-11-21T02:52:24.229Z,16.00
2018-11-21T02:57:31.527Z,14.25
2018-11-21T03:02:35.034Z,16.75
2018-11-21T03:07:49.568Z,15.00
2018-11-21T03:12:53.074Z,15.80
2018-11-21T03:17:56.582Z,13.75
2018-11-21T03:23:00.072Z,13.80
2018-11-21T03:28:03.586Z,16.75
2018-11-21T03:33:07.071Z,13.75
2018-11-21T03:38:10.546Z,15.50
2018-11-21T03:43:14.047Z,14.20
2018-11-21T03:48:17.529Z,15.00
2018-11-21T03:53:20.986Z,14.20
2018-11-21T03:58:24.472Z,14.25
2018-11-21T04:03:27.965Z,16.60
2018-11-21T04:08:31.478Z,15.00
2018-11-21T04:13:34.965Z,14.00
2018-11-21T04:18:38.416Z,14.75
2018-11-21T04:23:41.891Z,14.25
2018-11-21T04:28:45.347Z,11.00
2018-11-21T04:33:48.856Z,14.40
2018-11-21T04:38:52.376Z,15.00
2018-11-21T04:43:55.853Z,14.00
2018-11-21T04:48:59.348Z,13.25
2018-11-21T04:54:02.820Z,13.60
2018-11-21T04:59:06.882Z,16.20
2018-11-21T05:04:10.447Z,13.60
2018-11-21T05:09:14.108Z,12.80
2018-11-21T05:14:17.625Z,13.00
2018-11-21T05:19:21.165Z,15.20
2018-11-21T05:24:24.709Z,12.75
2018-11-21T05:29:28.237Z,14.50
2018-11-21T05:34:31.736Z,16.00
2018-11-21T05:39:35.224Z,13.00
2018-11-21T05:44:38.726Z,14.75
2018-11-21T05:49:42.239Z,13.00
2018-11-21T05:54:45.690Z,14.75
2018-11-21T05:59:49.308Z,12.80
2018-11-21T06:04:52.849Z,13.00
2018-11-21T06:09:56.300Z,13.00
2018-11-21T06:14:59.888Z,14.00
2018-11-21T06:20:03.405Z,13.00
2018-11-21T06:25:07.871Z,13.40
2018-11-21T06:30:13.246Z,14.20
2018-11-21T06:35:16.849Z,10.60
2018-11-21T06:40:20.311Z,11.50
2018-11-21T06:45:25.452Z,13.60
2018-11-21T06:50:28.957Z,11.00
2018-11-21T06:55:33.165Z,14.40
2018-11-21T07:00:36.725Z,12.75
2018-11-21T07:05:40.383Z,10.20
2018-11-21T07:10:44.142Z,14.75
2018-11-21T07:15:47.994Z,11.60
2018-11-21T07:20:51.437Z,10.00
2018-11-21T07:25:55.257Z,12.25
2018-11-21T07:30:58.990Z,11.00
2018-11-21T07:36:03.081Z,16.00
2018-11-21T07:41:06.611Z,13.00
2018-11-21T07:46:10.109Z,10.75
2018-11-21T07:51:13.625Z,10.50
2018-11-21T07:57:05.451Z,10.00
2018-11-21T08:02:12.854Z,9.20
2018-11-21T08:07:47.293Z,58.50
2018-11-21T08:13:03.885Z,62.50
2018-11-21T08:18:25.933Z,62.50
2018-11-21T08:23:48.561Z,58.50
2018-11-21T08:28:52.033Z,51.40
2018-11-21T08:33:55.549Z,47.75
2018-11-21T08:38:59.017Z,52.50
2018-11-21T08:44:02.514Z,45.25
2018-11-21T08:49:06.215Z,47.00
2018-11-21T08:54:09.649Z,43.75
2018-11-21T08:59:13.175Z,46.00
2018-11-21T09:04:17.042Z,42.25
2018-11-21T09:09:20.719Z,45.25
2018-11-21T09:14:24.177Z,41.60
2018-11-21T09:19:27.980Z,43.50
2018-11-21T09:24:31.475Z,42.00
2018-11-21T09:29:35.005Z,42.20
2018-11-21T09:35:13.934Z,36.00
2018-11-21T09:40:18.933Z,39.60
2018-11-21T09:45:23.499Z,39.60
2018-11-21T09:50:28.736Z,40.00
2018-11-21T09:55:32.197Z,39.25
2018-11-21T10:01:12.646Z,37.50
2018-11-21T10:06:18.937Z,40.50
2018-11-21T10:11:22.887Z,37.50
2018-11-21T10:16:26.476Z,36.00
2018-11-21T10:21:31.697Z,41.20
2018-11-21T10:26:35.141Z,37.25
2018-11-21T10:31:38.583Z,36.75
2018-11-21T10:36:42.051Z,35.00
2018-11-21T10:41:45.720Z,35.25
2018-11-21T10:46:49.150Z,39.80
2018-11-21T10:51:52.724Z,37.00
2018-11-21T10:56:56.679Z,36.50
2018-11-21T11:02:18.101Z,37.20
2018-11-21T11:07:39.679Z,40.40
2018-11-21T11:13:00.418Z,33.00
2018-11-21T11:18:23.013Z,34.80
2018-11-21T11:23:45.584Z,34.75
2018-11-21T11:29:07.003Z,34.75
2018-11-21T11:34:32.218Z,35.25
2018-11-21T11:40:09.749Z,34.20
2018-11-21T11:45:23.394Z,35.00
2018-11-21T11:50:51.924Z,39.00
2018-11-21T11:56:12.987Z,53.00
2018-11-21T12:01:33.011Z,54.50
2018-11-21T12:06:54.208Z,55.00
2018-11-21T12:12:15.468Z,51.25
2018-11-21T12:17:37.751Z,53.80
2018-11-21T12:22:55.481Z,49.00
2018-11-21T12:28:06.456Z,49.50
2018-11-21T12:33:33.631Z,48.00
2018-11-21T12:38:59.099Z,49.75
2018-11-21T12:44:20.602Z,49.00
2018-11-21T12:49:42.007Z,51.25
2018-11-21T12:55:07.439Z,50.50
2018-11-21T13:00:19.966Z,51.00
2018-11-21T13:05:42.962Z,44.60
2018-11-21T13:10:55.398Z,45.25
2018-11-21T13:16:09.549Z,43.40
2018-11-21T13:21:32.116Z,40.20
2018-11-21T13:27:09.902Z,42.80
2018-11-21T13:32:35.455Z,42.75
2018-11-21T13:38:07.618Z,44.00
2018-11-21T13:43:29.257Z,40.50
2018-11-21T13:48:47.644Z,43.75
2018-11-21T13:54:13.354Z,42.80
2018-11-21T13:59:16.861Z,38.80
2018-11-21T14:04:20.440Z,42.75
2018-11-21T14:09:24.242Z,45.20
2018-11-21T14:14:27.733Z,44.75
2018-11-21T14:19:31.211Z,37.50
2018-11-21T14:24:34.690Z,37.25
2018-11-21T14:29:38.222Z,38.75
2018-11-21T14:34:41.707Z,39.00
2018-11-21T14:39:45.296Z,39.75
2018-11-21T14:44:48.998Z,42.00
2018-11-21T14:49:56.153Z,37.75
2018-11-21T14:54:59.592Z,37.00
2018-11-21T15:00:03.276Z,37.60
2018-11-21T15:05:07.672Z,40.20
2018-11-21T15:10:11.971Z,38.67
2018-11-21T15:15:17.021Z,38.20
2018-11-21T15:20:24.746Z,34.20
2018-11-21T15:25:28.237Z,37.25
2018-11-21T15:30:32.071Z,35.40
2018-11-21T15:35:35.498Z,38.25
2018-11-21T15:40:38.950Z,36.25
2018-11-21T15:45:42.380Z,35.75
2018-11-21T15:50:45.925Z,34.75
2018-11-21T15:55:49.542Z,34.00
2018-11-21T16:00:53.108Z,33.75
2018-11-21T16:05:56.712Z,33.20
2018-11-21T16:11:00.447Z,31.00
2018-11-21T16:16:03.974Z,33.60
2018-11-21T16:21:07.444Z,33.00
2018-11-21T16:26:10.948Z,32.20
2018-11-21T16:31:14.506Z,30.00
2018-11-21T16:36:18.036Z,32.80
2018-11-21T16:41:21.558Z,31.00
2018-11-21T16:46:25.060Z,27.25
2018-11-21T16:51:28.707Z,31.80
2018-11-21T16:56:32.199Z,34.75
2018-11-21T17:01:35.780Z,31.25
2018-11-21T17:06:39.343Z,36.25
2018-11-21T17:11:42.821Z,29.00
2018-11-21T17:16:46.301Z,31.25
2018-11-21T17:21:49.782Z,34.25
2018-11-21T17:26:53.271Z,29.00
2018-11-21T17:31:58.584Z,29.00
2018-11-21T17:37:02.084Z,29.40
2018-11-21T17:42:05.802Z,27.00
2018-11-21T17:47:09.254Z,28.75
2018-11-21T17:52:12.694Z,29.80
2018-11-21T17:57:16.173Z,27.00
2018-11-21T18:02:19.795Z,28.25
2018-11-21T18:07:23.207Z,26.00
2018-11-21T18:12:26.718Z,25.75
2018-11-21T18:17:30.289Z,24.75
2018-11-21T18:22:33.849Z,23.80
2018-11-21T18:27:37.588Z,26.00
2018-11-21T18:32:42.113Z,26.00
2018-11-21T18:37:46.186Z,27.25
2018-11-21T18:42:49.833Z,23.25
2018-11-21T18:47:53.505Z,26.25
2018-11-21T18:52:58.131Z,22.75
2018-11-21T18:58:31.610Z,25.25
2018-11-21T19:03:35.041Z,22.60
2018-11-21T19:08:38.563Z,26.00
2018-11-21T19:13:42.172Z,23.60
2018-11-21T19:18:45.661Z,21.00
2018-11-21T19:23:49.138Z,22.40
2018-11-21T19:28:52.702Z,26.00
2018-11-21T19:33:56.216Z,24.00
2018-11-21T19:38:59.804Z,23.25
2018-11-21T19:44:03.346Z,23.00
2018-11-21T19:49:06.783Z,21.80
2018-11-21T19:54:10.405Z,22.00
2018-11-21T19:59:13.896Z,24.40
2018-11-21T20:04:17.399Z,22.50
2018-11-21T20:09:20.869Z,20.40
2018-11-21T20:14:24.434Z,21.00
2018-11-21T20:19:27.921Z,23.20
2018-11-21T20:24:31.382Z,23.50
2018-11-21T20:29:35.142Z,22.75
2018-11-21T20:34:39.034Z,24.50
2018-11-21T20:39:46.833Z,23.00
2018-11-21T20:44:46.591Z,27.25
2018-11-21T20:49:50.109Z,24.60
2018-11-21T20:54:53.682Z,26.25
2018-11-21T20:59:57.277Z,25.20
2018-11-21T21:05:00.757Z,29.00
2018-11-21T21:10:04.544Z,23.00
2018-11-21T21:15:09.593Z,21.80
2018-11-21T21:20:15.058Z,23.00
2018-11-21T21:25:20.204Z,24.60
2018-11-21T21:30:25.783Z,25.40
2018-11-21T21:35:30.697Z,24.50
2018-11-21T21:40:34.183Z,24.60
2018-11-21T21:45:37.789Z,24.00
2018-11-21T21:50:41.355Z,22.50
2018-11-21T21:55:44.802Z,24.60
2018-11-21T22:00:48.291Z,23.75
2018-11-21T22:05:51.858Z,26.00
2018-11-21T22:10:55.283Z,20.75
2018-11-21T22:15:58.769Z,24.50
2018-11-21T22:21:02.266Z,21.75
2018-11-21T22:26:06.024Z,21.60
2018-11-21T22:31:09.520Z,21.25
2018-11-21T22:36:12.970Z,20.00
2018-11-21T22:41:16.425Z,22.50
2018-11-21T22:46:19.918Z,20.80
2018-11-21T22:51:23.364Z,23.75
2018-11-21T22:56:26.804Z,24.20
2018-11-21T23:01:32.408Z,22.25
2018-11-21T23:06:35.986Z,22.50
2018-11-21T23:11:39.664Z,19.50
2018-11-21T23:16:43.354Z,20.75
2018-11-21T23:21:49.896Z,21.75
2018-11-21T23:26:53.782Z,19.25
2018-11-21T23:31:57.266Z,19.25
2018-11-21T23:37:00.722Z,21.40
2018-11-21T23:42:04.175Z,18.00
2018-11-21T23:47:07.953Z,21.00
2018-11-21T23:52:11.493Z,22.75
2018-11-21T23:57:16.327Z,19.25
